Time;durP1;ratioP1;P1;durP2;ratioP2;P2;SDS_P1;SDS_P2;PMS_P1;PMS_P2;Temp;Humidity;BMP_temperature;BMP_pressure;BME280_temperature;BME280_humidity;BME280_pressure;Samples;Min_cycle;Max_cycle;Signal;HPM_P1;HPM_P2
2022/12/14 00:02:09;;;;;;;0.20;0.20;;;-5.30;99.90;-7.30;95868.00;;;;5078886;28;20267;-73
2022/12/14 00:04:37;;;;;;;0.30;0.30;;;-5.40;99.90;-7.30;95850.00;;;;5081859;28;20228;-74
2022/12/14 00:07:07;;;;;;;0.20;0.20;;;-5.40;99.90;-7.20;95847.00;;;;5088310;28;20701;-72
2022/12/14 00:09:35;;;;;;;0.20;0.20;;;-5.30;99.90;-7.20;95837.00;;;;5082257;28;20217;-72
2022/12/14 00:12:04;;;;;;;0.20;0.20;;;-5.30;99.90;-7.00;95835.00;;;;5081382;28;20296;-73
2022/12/14 00:14:32;;;;;;;0.20;0.20;;;-5.10;99.90;-7.10;95854.00;;;;5082706;28;20189;-73
2022/12/14 00:17:00;;;;;;;0.30;0.30;;;-5.20;99.90;-7.10;95843.00;;;;5081456;28;20185;-73
2022/12/14 00:19:28;;;;;;;0.30;0.30;;;-5.20;99.90;-7.20;95835.00;;;;5081137;28;20217;-72
2022/12/14 00:21:56;;;;;;;0.20;0.20;;;-5.30;99.90;-7.20;95837.00;;;;5080640;28;20193;-73
2022/12/14 00:24:25;;;;;;;0.30;0.30;;;-5.20;99.90;-7.10;95838.00;;;;5081222;28;20740;-72
2022/12/14 00:26:54;;;;;;;0.20;0.20;;;-5.10;99.90;-6.90;95828.00;;;;5069323;28;20654;-74
2022/12/14 00:29:22;;;;;;;0.22;0.22;;;-5.00;99.90;-6.90;95824.00;;;;5073938;28;20225;-73
2022/12/14 00:31:50;;;;;;;0.30;0.30;;;-5.00;99.90;-6.90;95833.00;;;;5080446;28;20740;-73
2022/12/14 00:34:19;;;;;;;0.20;0.20;;;-4.90;99.90;-6.90;95827.00;;;;5079838;28;20196;-72
2022/12/14 00:36:47;;;;;;;0.20;0.20;;;-5.00;99.90;-6.90;95845.00;;;;5080226;28;20243;-74
2022/12/14 00:39:15;;;;;;;0.20;0.20;;;-4.90;99.90;-6.80;95834.00;;;;5088682;28;21311;-72
2022/12/14 00:41:44;;;;;;;0.20;0.20;;;-4.90;99.90;-6.80;95829.00;;;;5082531;28;20564;-73
2022/12/14 00:44:12;;;;;;;0.20;0.20;;;-4.80;99.90;-6.90;95824.00;;;;5080434;28;20724;-73
2022/12/14 00:46:40;;;;;;;0.20;0.20;;;-4.80;99.90;-7.00;95820.00;;;;5071171;28;20194;-73
2022/12/14 00:49:09;;;;;;;0.20;0.20;;;-5.00;99.90;-7.00;95816.00;;;;5081680;28;20224;-73
2022/12/14 00:51:38;;;;;;;0.20;0.20;;;-4.90;99.90;-7.00;95821.00;;;;5072802;28;20243;-73
2022/12/14 00:54:06;;;;;;;0.20;0.20;;;-5.00;99.90;-6.90;95837.00;;;;5076050;28;20258;-72
2022/12/14 00:56:34;;;;;;;0.30;0.30;;;-4.90;99.90;-6.80;95821.00;;;;5071937;28;20666;-74
2022/12/14 00:59:03;;;;;;;0.30;0.30;;;-4.90;99.90;-6.90;95831.00;;;;5071657;28;20694;-73
2022/12/14 01:01:31;;;;;;;0.25;0.25;;;-5.00;99.90;-7.10;95826.00;;;;5072367;28;20600;-73
2022/12/14 01:06:43;;;;;;;0.30;0.30;;;-5.10;99.90;-6.90;95826.00;;;;5069972;28;20202;-73
2022/12/14 01:09:12;;;;;;;0.20;0.20;;;-4.90;99.90;-6.80;95837.00;;;;5073607;28;20706;-73
2022/12/14 01:11:41;;;;;;;0.30;0.30;;;-4.90;99.90;-6.80;95819.00;;;;5087182;28;20246;-72
2022/12/14 01:14:12;;;;;;;0.30;0.30;;;-4.90;99.90;-7.00;95809.00;;;;5067110;28;20271;-73
2022/12/14 01:16:40;;;;;;;0.30;0.30;;;-5.10;99.90;-7.50;95801.00;;;;5070498;28;20692;-72
2022/12/14 01:19:10;;;;;;;0.20;0.20;;;-5.10;99.90;-7.10;95803.00;;;;5078513;28;20225;-71
2022/12/14 01:21:38;;;;;;;0.30;0.30;;;-5.20;99.90;-7.20;95807.00;;;;5069702;28;20200;-72
2022/12/14 01:24:07;;;;;;;0.20;0.20;;;-5.20;99.90;-7.10;95801.00;;;;5073916;28;20205;-72
2022/12/14 01:26:39;;;;;;;0.20;0.20;;;-5.10;99.90;-6.90;95802.00;;;;5078954;28;20204;-73
2022/12/14 01:29:08;;;;;;;0.20;0.20;;;-5.00;99.90;-6.80;95813.00;;;;5084161;28;20725;-73
2022/12/14 01:31:38;;;;;;;0.20;0.20;;;-4.90;99.90;-6.70;95810.00;;;;5081661;28;20236;-72
2022/12/14 01:34:07;;;;;;;0.20;0.20;;;-4.80;99.90;-6.60;95800.00;;;;5076354;28;20193;-73
2022/12/14 01:36:36;;;;;;;0.30;0.30;;;-4.70;99.90;-6.50;95796.00;;;;5073416;28;20209;-72
2022/12/14 01:39:08;;;;;;;0.20;0.20;;;-4.70;99.90;-6.50;95815.00;;;;5081227;28;20258;-73
2022/12/14 01:41:40;;;;;;;0.20;0.20;;;-4.60;99.90;-6.30;95741.00;;;;5073347;28;20186;-73
2022/12/14 01:44:50;;;;;;;0.20;0.20;;;-4.40;99.90;-6.40;95810.00;;;;5072529;28;20198;-73
2022/12/14 01:47:29;;;;;;;0.20;0.20;;;-4.50;99.90;-6.40;95809.00;;;;5087279;28;20193;-75
2022/12/14 01:50:05;;;;;;;0.20;0.20;;;-4.50;99.90;-6.50;95774.00;;;;5081715;28;20285;-72
2022/12/14 01:52:41;;;;;;;0.30;0.30;;;-4.50;99.90;-6.40;95799.00;;;;5075003;28;20193;-72
2022/12/14 01:55:16;;;;;;;0.20;0.20;;;-4.50;99.90;-6.40;95808.00;;;;5080354;28;20205;-73
2022/12/14 01:57:51;;;;;;;0.20;0.20;;;-4.50;99.90;-6.30;95803.00;;;;5070251;28;20731;-72
2022/12/14 02:00:21;;;;;;;0.30;0.30;;;-4.50;99.90;-6.30;95784.00;;;;5081660;28;20201;-70
2022/12/14 02:02:56;;;;;;;0.30;0.30;;;-4.50;99.90;-6.30;95778.00;;;;5081305;28;20194;-70
2022/12/14 02:05:26;;;;;;;0.20;0.20;;;-4.40;99.90;-6.10;95785.00;;;;5065864;28;20609;-70
2022/12/14 02:07:56;;;;;;;0.20;0.20;;;-4.30;99.90;-6.10;95778.00;;;;5078359;28;20202;-72
2022/12/14 02:10:29;;;;;;;0.20;0.20;;;-4.20;99.90;-6.10;95787.00;;;;5075729;28;20197;-71
2022/12/14 02:13:05;;;;;;;0.20;0.20;;;-4.20;99.90;-6.00;95784.00;;;;5081898;28;20219;-72
2022/12/14 02:15:35;;;;;;;0.20;0.20;;;-4.20;99.90;-6.00;95781.00;;;;5077384;28;20271;-71
2022/12/14 02:18:10;;;;;;;0.20;0.20;;;-4.20;99.90;-6.00;95772.00;;;;5077774;28;20230;-70
2022/12/14 02:20:53;;;;;;;0.20;0.20;;;-4.10;99.90;-5.90;95770.00;;;;5075629;28;20197;-70
2022/12/14 02:24:19;;;;;;;0.17;0.17;;;-4.10;99.90;-5.80;95772.00;;;;5076043;28;20262;-75
2022/12/14 02:27:42;;;;;;;0.20;0.20;;;-4.00;99.90;-5.90;95763.00;;;;5077945;28;20246;-74
2022/12/14 02:30:18;;;;;;;0.20;0.20;;;-4.00;99.90;-5.80;95762.00;;;;5082484;28;20214;-73
2022/12/14 02:33:10;;;;;;;0.20;0.20;;;-4.10;99.90;-5.80;95771.00;;;;5084711;28;20208;-74
2022/12/14 02:35:46;;;;;;;0.20;0.20;;;-4.00;99.90;-5.80;95698.00;;;;5085926;28;20243;-74
2022/12/14 02:38:41;;;;;;;0.20;0.20;;;-4.00;99.90;-5.80;95748.00;;;;5083971;28;20280;-74
2022/12/14 02:41:19;;;;;;;0.20;0.20;;;-4.00;99.90;-5.70;95761.00;;;;5085318;28;20205;-75
2022/12/14 02:44:03;;;;;;;0.20;0.20;;;-3.90;99.90;-5.70;95756.00;;;;5072024;28;20285;-76
2022/12/14 02:46:42;;;;;;;0.20;0.20;;;-3.90;99.90;-5.70;95764.00;;;;5076990;28;20193;-75
2022/12/14 02:49:32;;;;;;;0.20;0.20;;;-3.90;99.90;-5.70;95743.00;;;;5084123;28;20224;-75
2022/12/14 02:52:09;;;;;;;0.20;0.20;;;-3.90;99.90;-5.70;95721.00;;;;5083175;28;20255;-75
2022/12/14 02:54:47;;;;;;;0.20;0.20;;;-3.90;99.90;-5.70;95738.00;;;;5078922;28;20669;-75
2022/12/14 02:57:22;;;;;;;0.20;0.20;;;-3.90;99.90;-5.60;95640.00;;;;5082717;28;20192;-74
2022/12/14 02:59:56;;;;;;;0.20;0.20;;;-3.80;99.90;-5.50;95740.00;;;;5072821;28;20278;-74
2022/12/14 03:02:29;;;;;;;0.20;0.20;;;-3.70;99.90;-5.50;95735.00;;;;5076698;28;20216;-72
2022/12/14 03:04:58;;;;;;;0.30;0.30;;;-3.70;99.90;-5.50;95743.00;;;;5076809;28;20193;-77
2022/12/14 03:07:42;;;;;;;0.20;0.20;;;-3.70;99.90;-5.50;95729.00;;;;5085490;28;20201;-73
2022/12/14 03:10:23;;;;;;;0.20;0.20;;;-3.70;99.90;-5.50;95719.00;;;;5082157;28;20619;-75
2022/12/14 03:12:59;;;;;;;0.25;0.25;;;-3.70;99.90;-5.50;95730.00;;;;5077076;28;20263;-72
2022/12/14 03:15:30;;;;;;;0.20;0.20;;;-3.70;99.90;-5.50;95717.00;;;;5071796;28;20653;-72
2022/12/14 03:18:07;;;;;;;0.20;0.20;;;-3.70;99.90;-5.50;95715.00;;;;5080743;28;20201;-72
2022/12/14 03:20:38;;;;;;;0.20;0.20;;;-3.70;99.90;-5.50;95723.00;;;;5085591;28;20217;-72
2022/12/14 03:23:11;;;;;;;0.20;0.20;;;-3.70;99.90;-5.50;95709.00;;;;5083248;28;20251;-75
2022/12/14 03:25:47;;;;;;;0.20;0.20;;;-3.70;99.90;-5.50;95714.00;;;;5075363;28;20201;-73
2022/12/14 03:28:21;;;;;;;0.20;0.20;;;-3.70;99.90;-5.50;95708.00;;;;5080318;28;20782;-73
2022/12/14 03:30:59;;;;;;;0.30;0.30;;;-3.70;99.90;-5.50;95701.00;;;;5078756;28;20625;-75
2022/12/14 03:33:32;;;;;;;0.20;0.20;;;-3.70;99.90;-5.50;95708.00;;;;5073722;28;20197;-75
2022/12/14 03:36:10;;;;;;;0.20;0.20;;;-3.70;99.90;-5.50;95681.00;;;;5086132;28;20209;-75
2022/12/14 03:38:43;;;;;;;0.20;0.20;;;-3.70;99.90;-5.40;95672.00;;;;5084188;28;20217;-75
2022/12/14 03:41:22;;;;;;;0.20;0.20;;;-3.60;99.90;-5.40;95689.00;;;;5072529;28;20205;-76
2022/12/14 03:44:08;;;;;;;0.20;0.20;;;-3.60;99.90;-5.50;95674.00;;;;5094700;28;20624;-76
2022/12/14 03:46:50;;;;;;;0.22;0.22;;;-3.70;99.90;-5.50;95700.00;;;;5078435;28;20247;-75
2022/12/14 03:49:34;;;;;;;0.20;0.20;;;-3.70;99.90;-5.50;95676.00;;;;5083982;28;20212;-73
2022/12/14 03:52:14;;;;;;;0.20;0.20;;;-3.60;99.90;-5.80;95674.00;;;;5099275;28;20194;-75
2022/12/14 03:54:51;;;;;;;0.20;0.20;;;-3.60;99.90;-5.80;95667.00;;;;5079826;28;20678;-74
2022/12/14 03:57:38;;;;;;;0.20;0.20;;;-3.60;99.90;-5.40;95668.00;;;;5097958;28;20700;-75
2022/12/14 04:00:11;;;;;;;0.20;0.20;;;-3.60;99.90;-5.40;95691.00;;;;5079328;28;20287;-76
2022/12/14 04:02:52;;;;;;;0.20;0.20;;;-3.60;99.90;-5.40;95661.00;;;;5077027;28;20342;-75
2022/12/14 04:05:30;;;;;;;0.20;0.20;;;-3.60;99.90;-5.50;95659.00;;;;5069822;28;20193;-75
2022/12/14 04:08:05;;;;;;;0.20;0.20;;;-3.60;99.90;-5.40;95641.00;;;;5079462;28;20207;-75
2022/12/14 04:19:20;;;;;;;0.20;0.20;;;-3.50;99.90;-5.20;95608.00;;;;5081944;28;20238;-76
2022/12/14 04:21:58;;;;;;;0.28;0.28;;;-3.50;99.90;-5.20;95623.00;;;;5083408;28;20196;-75
2022/12/14 04:27:32;;;;;;;0.20;0.20;;;-3.50;99.90;-5.20;95609.00;;;;5073694;28;20196;-75
2022/12/14 04:30:02;;;;;;;0.20;0.20;;;-3.40;99.90;-5.20;95617.00;;;;5080509;28;20220;-75
2022/12/14 04:32:37;;;;;;;0.20;0.20;;;-3.40;99.90;-5.20;95616.00;;;;5072882;28;20220;-76
2022/12/14 04:35:12;;;;;;;0.20;0.20;;;-3.40;99.90;-5.20;95608.00;;;;5068396;28;20267;-75
2022/12/14 04:37:47;;;;;;;0.20;0.20;;;-3.40;99.90;-5.20;95611.00;;;;5070585;28;20262;-74
2022/12/14 04:40:22;;;;;;;0.20;0.20;;;-3.40;99.90;-5.10;95625.00;;;;5066509;28;20221;-75
2022/12/14 04:42:58;;;;;;;0.20;0.20;;;-3.30;99.90;-5.10;95594.00;;;;5078394;28;20205;-75
2022/12/14 04:45:33;;;;;;;0.20;0.20;;;-3.30;99.90;-5.00;95590.00;;;;5065655;28;20749;-76
2022/12/14 04:48:11;;;;;;;0.20;0.20;;;-3.20;99.90;-5.00;95555.00;;;;5071582;28;20283;-76
2022/12/14 04:50:45;;;;;;;0.20;0.20;;;-3.20;99.90;-5.00;95575.00;;;;5078490;28;20527;-76
2022/12/14 04:53:22;;;;;;;0.20;0.20;;;-3.20;99.90;-5.00;95583.00;;;;5075220;28;20204;-76
2022/12/14 04:56:00;;;;;;;0.20;0.20;;;-3.20;99.90;-5.00;95574.00;;;;5079579;28;20559;-76
2022/12/14 04:58:30;;;;;;;0.10;0.10;;;-3.20;99.90;-5.10;95572.00;;;;5075610;28;20213;-77
2022/12/14 05:01:21;;;;;;;0.20;0.20;;;-3.20;99.90;-5.00;95569.00;;;;5070747;28;20217;-76
2022/12/14 05:04:02;;;;;;;0.20;0.20;;;-3.20;99.90;-5.00;95577.00;;;;5069341;28;20263;-75
2022/12/14 05:06:41;;;;;;;0.20;0.20;;;-3.20;99.90;-4.90;95572.00;;;;5075320;28;20747;-75
2022/12/14 05:09:24;;;;;;;0.20;0.20;;;-3.20;99.90;-4.90;95576.00;;;;5084751;28;20221;-77
2022/12/14 05:12:04;;;;;;;0.20;0.20;;;-3.20;99.90;-4.90;95562.00;;;;5089077;28;20673;-77
2022/12/14 05:14:39;;;;;;;0.17;0.17;;;-3.10;99.90;-4.90;95509.00;;;;5084256;28;20251;-76
2022/12/14 05:17:08;;;;;;;0.20;0.20;;;-3.10;99.90;-4.90;95555.00;;;;5079952;28;20197;-76
2022/12/14 05:19:43;;;;;;;0.20;0.20;;;-3.10;99.90;-4.90;95553.00;;;;5076730;28;20233;-74
2022/12/14 05:22:17;;;;;;;0.20;0.20;;;-3.10;99.90;-4.80;95591.00;;;;5080111;28;20204;-73
2022/12/14 05:24:46;;;;;;;0.20;0.20;;;-3.00;99.90;-4.80;95549.00;;;;5081288;28;20263;-76
2022/12/14 05:27:14;;;;;;;0.20;0.20;;;-3.00;99.90;-4.80;95550.00;;;;5085649;28;20487;-77
2022/12/14 05:29:42;;;;;;;0.20;0.20;;;-3.00;99.90;-4.80;95550.00;;;;5074872;28;20261;-74
2022/12/14 05:32:12;;;;;;;0.20;0.20;;;-3.00;99.90;-4.80;95542.00;;;;5083283;28;20616;-77
2022/12/14 05:34:40;;;;;;;0.20;0.20;;;-3.00;99.90;-4.80;95542.00;;;;5081854;28;20707;-76
2022/12/14 05:37:08;;;;;;;0.10;0.10;;;-3.00;99.90;-4.80;95532.00;;;;5083179;28;20214;-76
2022/12/14 05:39:46;;;;;;;0.20;0.20;;;-3.00;99.90;-4.70;95531.00;;;;5071111;28;20237;-76
2022/12/14 05:42:15;;;;;;;0.20;0.20;;;-3.00;99.90;-4.70;95550.00;;;;5075247;28;20194;-76
2022/12/14 05:44:43;;;;;;;0.20;0.20;;;-3.00;99.90;-4.70;95523.00;;;;5075449;28;20193;-76
2022/12/14 05:47:11;;;;;;;0.20;0.20;;;-3.00;99.90;-4.80;95516.00;;;;5082869;28;20205;-76
2022/12/14 05:49:39;;;;;;;0.20;0.20;;;-3.00;99.90;-4.80;95536.00;;;;5085038;28;20259;-76
2022/12/14 05:52:07;;;;;;;0.20;0.20;;;-3.00;99.90;-4.70;95527.00;;;;5087369;28;20196;-75
2022/12/14 05:54:35;;;;;;;0.20;0.20;;;-3.00;99.90;-4.70;95529.00;;;;5089474;28;20258;-75
2022/12/14 05:57:05;;;;;;;0.20;0.20;;;-2.90;99.90;-4.60;95534.00;;;;5083779;28;20243;-75
2022/12/14 05:59:33;;;;;;;0.20;0.20;;;-2.80;99.90;-4.50;95522.00;;;;5088400;28;20214;-75
2022/12/14 06:02:02;;;;;;;0.20;0.20;;;-2.70;99.90;-4.40;95520.00;;;;5081736;28;20308;-75
2022/12/14 06:04:30;;;;;;;0.20;0.20;;;-2.70;99.90;-4.40;95517.00;;;;5076050;28;20217;-75
2022/12/14 06:06:58;;;;;;;0.20;0.20;;;-2.70;99.90;-4.50;95528.00;;;;5077931;28;20193;-75
2022/12/14 06:09:26;;;;;;;0.20;0.20;;;-2.70;99.90;-4.50;95520.00;;;;5087584;28;20239;-75
2022/12/14 06:11:54;;;;;;;0.20;0.20;;;-2.70;99.90;-4.50;95530.00;;;;5089795;28;20252;-75
2022/12/14 06:14:24;;;;;;;0.20;0.20;;;-2.70;99.90;-4.50;95524.00;;;;5087215;28;20197;-75
2022/12/14 06:16:52;;;;;;;0.20;0.20;;;-2.70;99.90;-4.50;95528.00;;;;5070875;28;20194;-74
2022/12/14 06:19:20;;;;;;;0.20;0.20;;;-2.70;99.90;-4.50;95512.00;;;;5084209;28;20266;-75
2022/12/14 06:21:48;;;;;;;0.20;0.20;;;-2.70;99.90;-4.50;95529.00;;;;5084737;28;20579;-75
2022/12/14 06:24:16;;;;;;;0.20;0.20;;;-2.70;99.90;-4.50;95517.00;;;;5079207;28;20213;-75
2022/12/14 06:26:44;;;;;;;0.20;0.20;;;-2.70;99.90;-4.50;95516.00;;;;5072664;28;20197;-74
2022/12/14 06:29:17;;;;;;;0.20;0.20;;;-2.70;99.90;-4.60;95519.00;;;;5077795;28;20217;-75
2022/12/14 06:31:47;;;;;;;0.20;0.20;;;-2.70;99.90;-4.40;95523.00;;;;5071977;28;20251;-74
2022/12/14 06:34:18;;;;;;;0.20;0.20;;;-2.70;99.90;-4.50;95515.00;;;;5083973;28;20208;-74
2022/12/14 06:36:51;;;;;;;0.20;0.20;;;-2.70;99.90;-4.50;95506.00;;;;5082759;28;20204;-75
2022/12/14 06:39:19;;;;;;;0.20;0.20;;;-2.70;99.90;-4.50;95506.00;;;;5086193;28;20218;-74
2022/12/14 06:41:50;;;;;;;0.20;0.20;;;-2.70;99.90;-4.50;95437.00;;;;5088249;28;20220;-74
2022/12/14 06:44:19;;;;;;;0.10;0.10;;;-2.70;99.90;-4.50;95505.00;;;;5083038;28;20190;-74
2022/12/14 06:46:48;;;;;;;0.20;0.20;;;-2.70;99.90;-4.50;95508.00;;;;5073889;28;20278;-74
2022/12/14 06:49:17;;;;;;;0.20;0.20;;;-2.70;99.90;-4.50;95537.00;;;;5085245;28;20252;-75
2022/12/14 06:51:45;;;;;;;0.20;0.20;;;-2.70;99.90;-4.50;95509.00;;;;5082150;28;20267;-76
2022/12/14 06:54:15;;;;;;;0.20;0.20;;;-2.80;99.90;-4.60;95510.00;;;;5086412;28;20205;-75
2022/12/14 06:56:46;;;;;;;0.20;0.20;;;-2.80;99.90;-4.80;95485.00;;;;5079999;28;20201;-75
2022/12/14 06:59:16;;;;;;;0.20;0.20;;;-2.80;99.90;-4.80;95478.00;;;;5087012;28;20221;-75
2022/12/14 07:01:44;;;;;;;0.20;0.20;;;-2.90;99.90;-4.80;95474.00;;;;5081050;28;20232;-75
2022/12/14 07:04:20;;;;;;;0.10;0.10;;;-3.00;99.90;-4.70;95482.00;;;;5081537;28;20300;-76
2022/12/14 07:06:48;;;;;;;0.20;0.20;;;-2.90;99.90;-4.60;95490.00;;;;5084742;28;20192;-75
2022/12/14 07:09:16;;;;;;;0.20;0.20;;;-2.80;99.90;-4.50;95499.00;;;;5083934;28;20283;-75
2022/12/14 07:11:44;;;;;;;0.20;0.20;;;-2.80;99.90;-4.50;95476.00;;;;5084785;28;20727;-75
2022/12/14 07:14:16;;;;;;;0.20;0.20;;;-2.80;99.90;-4.50;95486.00;;;;5082428;28;20220;-75
2022/12/14 07:16:45;;;;;;;0.20;0.20;;;-2.70;99.90;-4.50;95492.00;;;;5085057;28;20189;-75
2022/12/14 07:19:18;;;;;;;0.20;0.20;;;-2.70;99.90;-4.40;95482.00;;;;5083315;28;20256;-75
2022/12/14 07:21:46;;;;;;;0.20;0.20;;;-2.70;99.90;-4.40;95491.00;;;;5084828;28;20221;-75
2022/12/14 07:24:14;;;;;;;0.20;0.20;;;-2.70;99.90;-4.50;95487.00;;;;5084063;28;20197;-75
2022/12/14 07:26:42;;;;;;;0.20;0.20;;;-2.70;99.90;-4.50;95485.00;;;;5084718;28;20189;-75
2022/12/14 07:29:13;;;;;;;0.20;0.20;;;-2.70;99.90;-4.50;95487.00;;;;5081893;28;20689;-75
2022/12/14 07:31:41;;;;;;;0.20;0.20;;;-2.80;99.90;-4.50;95497.00;;;;5085619;28;20204;-75
2022/12/14 07:34:13;;;;;;;0.20;0.20;;;-2.80;99.90;-4.60;95493.00;;;;5082734;28;20193;-75
2022/12/14 07:36:43;;;;;;;0.20;0.20;;;-2.90;99.90;-4.60;95494.00;;;;5086129;28;20246;-75
2022/12/14 07:39:13;;;;;;;0.10;0.10;;;-2.90;99.90;-4.60;95491.00;;;;5081564;28;20266;-75
2022/12/14 07:41:41;;;;;;;0.20;0.20;;;-2.90;99.90;-4.60;95484.00;;;;5081201;28;20574;-75
2022/12/14 07:44:10;;;;;;;0.17;0.17;;;-2.90;99.90;-4.60;95498.00;;;;5082121;28;20193;-75
2022/12/14 07:46:39;;;;;;;0.20;0.20;;;-2.90;99.90;-4.70;95484.00;;;;5080345;28;20186;-75
2022/12/14 07:49:07;;;;;;;0.20;0.20;;;-2.90;99.90;-4.60;95490.00;;;;5086262;28;20213;-76
2022/12/14 07:51:40;;;;;;;0.20;0.20;;;-2.90;99.90;-4.60;95501.00;;;;5080448;28;20303;-76
2022/12/14 07:54:11;;;;;;;0.20;0.20;;;-2.90;99.90;-4.60;95472.00;;;;5087445;28;20197;-75
2022/12/14 07:56:43;;;;;;;0.20;0.20;;;-2.80;99.90;-4.50;95479.00;;;;5080407;28;20197;-75
2022/12/14 07:59:14;;;;;;;0.20;0.20;;;-2.80;99.90;-4.50;95488.00;;;;5087911;28;20221;-76
2022/12/14 08:01:44;;;;;;;0.20;0.20;;;-2.80;99.90;-4.40;95481.00;;;;5080355;28;20217;-75
2022/12/14 08:04:16;;;;;;;0.20;0.20;;;-2.80;99.90;-4.40;95476.00;;;;5082182;28;20287;-75
2022/12/14 08:06:45;;;;;;;0.20;0.20;;;-2.70;99.90;-4.40;95477.00;;;;5083886;28;20661;-75
2022/12/14 08:09:16;;;;;;;0.20;0.20;;;-2.70;99.90;-4.30;95473.00;;;;5082652;28;20592;-75
2022/12/14 08:11:44;;;;;;;0.20;0.20;;;-2.70;99.90;-4.30;95463.00;;;;5072685;28;20198;-75
2022/12/14 08:14:16;;;;;;;0.20;0.20;;;-2.70;99.90;-4.30;95461.00;;;;5079367;28;20247;-75
2022/12/14 08:16:46;;;;;;;0.20;0.20;;;-2.60;99.90;-4.30;95450.00;;;;5079832;28;20230;-75
2022/12/14 08:19:16;;;;;;;0.20;0.20;;;-2.60;99.90;-4.30;95439.00;;;;5079492;28;20224;-75
2022/12/14 08:21:45;;;;;;;0.20;0.20;;;-2.60;99.90;-4.20;95439.00;;;;5082966;28;20286;-75
2022/12/14 08:24:15;;;;;;;0.20;0.20;;;-2.50;99.90;-4.10;95431.00;;;;5083497;28;20680;-76
2022/12/14 08:26:43;;;;;;;0.20;0.20;;;-2.50;99.90;-4.10;95425.00;;;;5083901;28;20250;-76
2022/12/14 08:29:17;;;;;;;0.20;0.20;;;-2.50;99.90;-4.10;95414.00;;;;5080260;28;20304;-76
2022/12/14 08:31:45;;;;;;;0.20;0.20;;;-2.40;99.90;-4.10;95417.00;;;;5084620;28;20205;-76
2022/12/14 08:34:14;;;;;;;0.20;0.20;;;-2.40;99.90;-4.20;95415.00;;;;5080730;28;20197;-76
2022/12/14 08:36:42;;;;;;;0.20;0.20;;;-2.50;99.90;-4.10;95427.00;;;;5084570;28;20246;-76
2022/12/14 08:39:12;;;;;;;0.20;0.20;;;-2.40;99.90;-3.90;95433.00;;;;5080769;28;20645;-76
2022/12/14 08:41:41;;;;;;;0.10;0.10;;;-2.40;99.90;-3.90;95405.00;;;;5078072;28;20689;-76
2022/12/14 08:44:11;;;;;;;0.20;0.20;;;-2.20;99.90;-3.80;95414.00;;;;5081169;28;20230;-76
2022/12/14 08:46:41;;;;;;;0.20;0.20;;;-2.20;99.90;-3.70;95431.00;;;;5079593;28;20244;-76
2022/12/14 08:49:10;;;;;;;0.20;0.20;;;-2.10;99.90;-3.70;95434.00;;;;5077685;28;20636;-76
2022/12/14 08:51:39;;;;;;;0.20;0.20;;;-2.10;99.90;-3.60;95436.00;;;;5081378;28;20200;-76
2022/12/14 08:54:07;;;;;;;0.20;0.20;;;-2.00;99.90;-3.50;95432.00;;;;5086373;28;20670;-76
2022/12/14 08:56:35;;;;;;;0.17;0.17;;;-1.90;99.90;-3.50;95434.00;;;;5078893;28;20193;-76
2022/12/14 08:59:04;;;;;;;0.20;0.20;;;-1.90;99.90;-3.80;95404.00;;;;5087021;28;20217;-76
2022/12/14 09:01:32;;;;;;;0.10;0.10;;;-2.10;99.90;-3.80;95409.00;;;;5079100;28;20543;-76
2022/12/14 09:04:08;;;;;;;0.10;0.10;;;-2.10;99.90;-3.70;95384.00;;;;5080050;28;20623;-76
2022/12/14 09:06:38;;;;;;;0.10;0.10;;;-2.10;99.90;-3.80;95390.00;;;;5083104;28;20662;-76
2022/12/14 09:09:08;;;;;;;0.10;0.10;;;-2.10;99.90;-3.90;95371.00;;;;5081693;28;20608;-75
2022/12/14 09:11:44;;;;;;;0.20;0.20;;;-2.10;99.90;-3.70;95379.00;;;;5098531;28;20696;-76
2022/12/14 09:14:14;;;;;;;0.20;0.20;;;-2.00;99.90;-3.70;95377.00;;;;5080653;28;20221;-76
2022/12/14 09:16:42;;;;;;;0.20;0.20;;;-2.00;99.90;-3.70;95367.00;;;;5083403;28;20536;-76
2022/12/14 09:19:12;;;;;;;0.20;0.20;;;-2.00;99.90;-3.70;95387.00;;;;5079210;28;20266;-76
2022/12/14 09:21:43;;;;;;;0.20;0.20;;;-2.00;99.90;-3.70;95371.00;;;;5073593;28;20626;-76
2022/12/14 09:24:11;;;;;;;0.20;0.20;;;-2.00;99.90;-3.60;95378.00;;;;5074861;28;20197;-75
2022/12/14 09:26:39;;;;;;;0.20;0.20;;;-1.90;99.90;-3.60;95370.00;;;;5083224;28;20201;-76
2022/12/14 09:29:12;;;;;;;0.20;0.20;;;-2.00;99.90;-3.60;95374.00;;;;5080713;28;20282;-76
2022/12/14 09:31:41;;;;;;;0.20;0.20;;;-1.90;99.90;-3.60;95356.00;;;;5083577;28;20223;-76
2022/12/14 09:34:10;;;;;;;0.17;0.17;;;-2.00;99.90;-3.60;95363.00;;;;5081144;28;20653;-77
2022/12/14 09:36:39;;;;;;;0.20;0.20;;;-2.00;99.90;-3.60;95363.00;;;;5084143;28;20189;-75
2022/12/14 09:39:07;;;;;;;0.20;0.20;;;-2.00;99.90;-3.60;95368.00;;;;5081383;28;20213;-75
2022/12/14 09:41:57;;;;;;;0.10;0.10;;;-1.90;99.90;-3.60;95373.00;;;;5084194;28;20250;-76
2022/12/14 09:44:52;;;;;;;0.20;0.20;;;-1.90;99.90;-3.60;95360.00;;;;5074646;28;20233;-76
2022/12/14 09:47:29;;;;;;;0.20;0.20;;;-2.00;99.90;-4.10;95350.00;;;;5082494;28;20193;-75
2022/12/14 09:50:03;;;;;;;0.13;0.13;;;-2.00;99.90;-3.80;95246.00;;;;5080248;28;20263;-76
2022/12/14 09:52:43;;;;;;;0.20;0.20;;;-2.10;99.90;-3.70;95355.00;;;;5082857;28;20200;-75
2022/12/14 09:55:21;;;;;;;0.20;0.20;;;-2.10;99.90;-3.80;95353.00;;;;5084869;28;20194;-75
2022/12/14 09:57:56;;;;;;;0.20;0.20;;;-2.10;99.90;-3.80;95379.00;;;;5090330;28;20666;-75
2022/12/14 10:00:24;;;;;;;0.20;0.20;;;-2.10;99.90;-3.80;95355.00;;;;5079119;28;20215;-75
2022/12/14 10:03:15;;;;;;;0.10;0.10;;;-2.10;99.90;-3.80;95352.00;;;;5092006;28;20224;-75
2022/12/14 10:06:29;;;;;;;0.20;0.20;;;-2.20;99.90;-3.90;95325.00;;;;5085564;28;20205;-74
2022/12/14 10:09:09;;;;;;;0.20;0.20;;;-2.20;99.90;-3.90;95321.00;;;;5069435;28;20767;-74
2022/12/14 10:11:53;;;;;;;0.20;0.20;;;-2.20;99.90;-3.90;95331.00;;;;5075986;28;20186;-75
2022/12/14 10:14:39;;;;;;;0.20;0.20;;;-2.20;99.90;-3.80;95362.00;;;;5085324;28;20583;-75
2022/12/14 10:17:26;;;;;;;0.20;0.20;;;-2.20;99.90;-3.80;95331.00;;;;5087564;28;20193;-75
2022/12/14 10:20:03;;;;;;;0.20;0.20;;;-2.20;99.90;-3.90;95365.00;;;;5087309;28;20626;-75
2022/12/14 10:22:37;;;;;;;0.20;0.20;;;-2.20;99.90;-3.90;95340.00;;;;5079514;28;20209;-75
2022/12/14 10:25:13;;;;;;;0.20;0.20;;;-2.20;99.90;-3.90;95328.00;;;;5089928;28;20200;-75
2022/12/14 10:27:48;;;;;;;0.20;0.20;;;-2.20;99.90;-3.90;95343.00;;;;5081998;28;20197;-75
2022/12/14 10:30:36;;;;;;;0.20;0.20;;;-2.20;99.90;-3.90;95347.00;;;;5073923;28;20272;-75
2022/12/14 10:33:19;;;;;;;0.20;0.20;;;-2.20;99.90;-3.80;95347.00;;;;5083735;28;20193;-75
2022/12/14 10:35:53;;;;;;;0.20;0.20;;;-2.20;99.90;-3.90;95343.00;;;;5085650;28;20201;-75
2022/12/14 10:38:28;;;;;;;0.15;0.15;;;-2.20;99.90;-3.90;95339.00;;;;5080735;28;20224;-75
2022/12/14 10:41:08;;;;;;;0.20;0.20;;;-2.20;99.90;-3.90;95339.00;;;;5073718;28;20661;-75
2022/12/14 10:43:51;;;;;;;0.20;0.20;;;-2.20;99.90;-3.90;95331.00;;;;5069618;28;20217;-75
2022/12/14 10:46:28;;;;;;;0.20;0.20;;;-2.20;99.90;-3.90;95324.00;;;;5084571;28;20208;-75
2022/12/14 10:49:11;;;;;;;0.20;0.20;;;-2.20;99.90;-3.90;95330.00;;;;5088022;28;20217;-75
2022/12/14 10:51:47;;;;;;;0.20;0.20;;;-2.20;99.90;-3.80;95317.00;;;;5081162;28;20189;-75
2022/12/14 10:54:28;;;;;;;0.20;0.20;;;-2.20;99.90;-3.80;95328.00;;;;5089280;28;20553;-75
2022/12/14 10:56:57;;;;;;;0.20;0.20;;;-2.20;99.90;-3.80;95340.00;;;;5078506;28;20202;-75
2022/12/14 10:59:35;;;;;;;0.20;0.20;;;-2.20;99.90;-3.80;95323.00;;;;5074631;28;20292;-75
2022/12/14 11:02:18;;;;;;;0.20;0.20;;;-2.10;99.90;-3.90;95326.00;;;;5082929;28;20728;-75
2022/12/14 11:04:51;;;;;;;0.20;0.20;;;-2.20;99.90;-3.80;95335.00;;;;5084350;28;20553;-75
2022/12/14 11:07:24;;;;;;;0.20;0.20;;;-2.20;99.90;-3.90;95336.00;;;;5084403;28;20189;-75
2022/12/14 11:09:53;;;;;;;0.20;0.20;;;-2.20;99.90;-3.90;95331.00;;;;5090552;28;20709;-75
2022/12/14 11:12:25;;;;;;;0.20;0.20;;;-2.20;99.90;-3.80;95264.00;;;;5081818;28;20189;-75
2022/12/14 11:14:59;;;;;;;0.20;0.20;;;-2.20;99.90;-3.80;95325.00;;;;5085784;28;20201;-75
2022/12/14 11:17:38;;;;;;;0.20;0.20;;;-2.10;99.90;-3.80;95328.00;;;;5079767;28;20206;-75
2022/12/14 11:20:18;;;;;;;0.20;0.20;;;-2.20;99.90;-3.80;95322.00;;;;5080975;28;20225;-77
2022/12/14 11:22:51;;;;;;;0.20;0.20;;;-2.10;99.90;-3.80;95328.00;;;;5082489;28;20263;-74
2022/12/14 11:25:34;;;;;;;0.20;0.20;;;-2.10;99.90;-3.80;95307.00;;;;5089375;28;20231;-74
2022/12/14 11:28:18;;;;;;;0.20;0.20;;;-2.10;99.90;-3.80;95310.00;;;;5065244;28;20221;-75
2022/12/14 11:30:59;;;;;;;0.20;0.20;;;-2.20;99.90;-3.80;95310.00;;;;5084027;28;20193;-75
2022/12/14 11:33:34;;;;;;;0.20;0.20;;;-2.10;99.90;-3.70;95306.00;;;;5073045;28;20208;-75
2022/12/14 11:36:03;;;;;;;0.20;0.20;;;-2.10;99.90;-3.70;95339.00;;;;5082676;28;20241;-75
2022/12/14 11:38:33;;;;;;;0.20;0.20;;;-2.00;99.90;-3.70;95293.00;;;;5083903;28;20219;-75